createdAt,value
2014-09-09T00:00:39.717Z,61.77
2014-09-09T00:01:44.703Z,60.82
2014-09-09T00:02:49.393Z,61.32
2014-09-09T00:03:54.082Z,61.88
2014-09-09T00:04:58.756Z,62.07
2014-09-09T00:06:03.446Z,62
2014-09-09T00:07:08.432Z,62.07
2014-09-09T00:08:13.122Z,62.73
2014-09-09T00:09:17.796Z,62.27
2014-09-09T00:10:22.486Z,61.59
2014-09-09T00:11:27.472Z,62.38
2014-09-09T00:12:32.161Z,63.12
2014-09-09T00:13:37.132Z,62.68
2014-09-09T00:14:41.822Z,61.84
2014-09-09T00:15:46.512Z,61.81
2014-09-09T00:16:51.498Z,63.03
2014-09-09T00:17:56.172Z,63.17
2014-09-09T00:19:00.861Z,62.48
2014-09-09T00:20:05.550Z,62.2
2014-09-09T00:21:10.225Z,61.79
2014-09-09T00:22:14.914Z,61.74
2014-09-09T00:23:19.603Z,60.99
2014-09-09T00:24:24.294Z,61.98
2014-09-09T00:25:28.982Z,62.25
2014-09-09T00:26:33.673Z,62.6
2014-09-09T00:27:38.643Z,62.27
2014-09-09T00:28:43.333Z,62.05
2014-09-09T00:29:48.023Z,61.91
2014-09-09T00:30:52.696Z,62.25
2014-09-09T00:31:57.011Z,62.23
2014-09-09T00:33:01.700Z,61.54
2014-09-09T00:34:06.374Z,61.85
2014-09-09T00:35:11.064Z,62.12
2014-09-09T00:36:16.050Z,63.21
2014-09-09T00:37:20.740Z,63.14
2014-09-09T00:38:25.430Z,62.95
2014-09-09T00:39:30.417Z,62.02
2014-09-09T00:40:35.106Z,61.38
2014-09-09T00:41:39.092Z,61.24
2014-09-09T00:42:44.079Z,61.64
2014-09-09T00:43:48.768Z,61.7
2014-09-09T00:44:53.755Z,62.62
2014-09-09T00:45:58.444Z,62.38
2014-09-09T00:47:03.118Z,61.96
2014-09-09T00:48:07.809Z,62.36
2014-09-09T00:49:12.497Z,62.56
2014-09-09T00:50:17.483Z,62.96
2014-09-09T00:51:22.174Z,62.93
2014-09-09T00:52:26.847Z,62.85
2014-09-09T00:53:31.834Z,63.28
2014-09-09T00:54:36.523Z,62.35
2014-09-09T00:55:41.510Z,62.48
2014-09-09T00:56:46.200Z,62.87
2014-09-09T00:57:51.170Z,62.77
2014-09-09T00:58:55.860Z,62.7
2014-09-09T01:00:00.534Z,62.81
2014-09-09T01:01:05.223Z,62.76
2014-09-09T01:02:10.210Z,62.37
2014-09-09T01:03:14.900Z,62.8
2014-09-09T01:04:19.870Z,63.43
2014-09-09T01:05:24.857Z,62.93
2014-09-09T01:06:29.546Z,62.76
2014-09-09T01:07:34.533Z,62.52
2014-09-09T01:08:39.222Z,62.54
2014-09-09T01:09:44.193Z,62.1
2014-09-09T01:10:48.882Z,62.45
2014-09-09T01:11:53.572Z,62.99
2014-09-09T01:12:58.262Z,62.61
2014-09-09T01:14:02.936Z,62.35
2014-09-09T01:15:07.922Z,61.71
2014-09-09T01:16:12.613Z,62.16
2014-09-09T01:17:17.285Z,62.09
2014-09-09T01:18:22.272Z,62.97
2014-09-09T01:19:27.259Z,63.91
2014-09-09T01:20:32.260Z,63.57
2014-09-09T01:21:36.950Z,63.79
2014-09-09T01:22:41.640Z,62.99
2014-09-09T01:23:46.313Z,62.36
2014-09-09T01:24:51.300Z,62.09
2014-09-09T01:25:56.287Z,62.55
2014-09-09T01:27:00.975Z,62.78
2014-09-09T01:28:05.947Z,63.13
2014-09-09T01:29:10.637Z,62.8
2014-09-09T01:30:15.326Z,62.24
2014-09-09T01:31:20.313Z,62.71
2014-09-09T01:32:25.002Z,62.58
2014-09-09T01:33:29.691Z,63.06
2014-09-09T01:34:34.382Z,63.23
2014-09-09T01:35:39.352Z,63.08
2014-09-09T01:36:44.042Z,63.23
2014-09-09T01:37:49.028Z,63.67
2014-09-09T01:38:54.015Z,63.17
2014-09-09T01:39:58.703Z,62.65
2014-09-09T01:41:03.691Z,62.99
2014-09-09T01:42:08.379Z,63.04
2014-09-09T01:43:13.054Z,62.98
2014-09-09T01:44:18.041Z,63.65
2014-09-09T01:45:23.027Z,63.66
2014-09-09T01:46:27.716Z,63.42
2014-09-09T01:47:32.406Z,63.58
2014-09-09T01:48:37.392Z,63.28
2014-09-09T01:49:42.363Z,62.58
2014-09-09T01:50:47.054Z,63.53
2014-09-09T01:51:52.039Z,63.4
2014-09-09T01:52:56.729Z,63.27
2014-09-09T01:54:01.419Z,62.94
2014-09-09T01:55:06.107Z,62.87
2014-09-09T01:56:11.095Z,63.32
2014-09-09T01:57:15.783Z,63.41
2014-09-09T01:58:20.474Z,63.21
2014-09-09T01:59:25.148Z,64.4
2014-09-09T02:00:29.868Z,64.74
2014-09-09T02:01:34.574Z,65.05
2014-09-09T02:02:39.264Z,65.12
2014-09-09T02:03:44.249Z,63.95
2014-09-09T02:04:48.923Z,63.62
2014-09-09T02:05:53.613Z,63.09
2014-09-09T02:06:58.303Z,63.15
2014-09-09T02:08:02.993Z,63.34
2014-09-09T02:09:07.681Z,63.71
2014-09-09T02:10:12.669Z,63.72
2014-09-09T02:11:17.358Z,63.82
2014-09-09T02:12:22.032Z,64.29
2014-09-09T02:13:27.018Z,64.82
2014-09-09T02:14:31.708Z,65.37
2014-09-09T02:15:36.397Z,66.49
2014-09-09T02:16:41.087Z,65.5
2014-09-09T02:17:45.777Z,64.62
2014-09-09T02:18:50.466Z,64.15
2014-09-09T02:19:55.156Z,65.41
2014-09-09T02:20:59.845Z,65.03
2014-09-09T02:22:04.832Z,64.46
2014-09-09T02:23:09.818Z,64.35
2014-09-09T02:24:14.508Z,64.58
2014-09-09T02:25:19.198Z,65.01
2014-09-09T02:26:23.887Z,64.99
2014-09-09T02:27:28.874Z,65.33
2014-09-09T02:28:33.860Z,64.76
2014-09-09T02:29:38.549Z,64.94
2014-09-09T02:30:43.239Z,65.09
2014-09-09T02:31:47.945Z,64.61
2014-09-09T02:32:52.650Z,64.68
2014-09-09T02:33:57.354Z,64.81
2014-09-09T02:35:02.356Z,65.83
2014-09-09T02:36:07.061Z,65.58
2014-09-09T02:37:11.767Z,64.89
2014-09-09T02:38:16.457Z,65.09
2014-09-09T02:39:21.162Z,65.04
2014-09-09T02:40:25.914Z,64.96
2014-09-09T02:41:30.634Z,64.72
2014-09-09T02:42:35.684Z,65.12
2014-09-09T02:43:40.701Z,64.48
2014-09-09T02:44:45.439Z,64.79
2014-09-09T02:45:49.487Z,65.35
2014-09-09T02:46:54.223Z,65.39
2014-09-09T02:47:58.959Z,65.11
2014-09-09T02:49:03.697Z,64.67
2014-09-09T02:50:08.432Z,64.63
2014-09-09T02:51:13.170Z,64.96
2014-09-09T02:52:17.905Z,64.8
2014-09-09T02:53:22.642Z,64.58
2014-09-09T02:54:27.379Z,64.69
2014-09-09T02:55:32.114Z,64.81
2014-09-09T02:56:36.867Z,65.08
2014-09-09T02:57:41.603Z,64.9
2014-09-09T02:58:46.324Z,64.74
2014-09-09T02:59:51.076Z,64.85
2014-09-09T03:00:55.813Z,64.98
2014-09-09T03:02:00.549Z,64.15
2014-09-09T03:03:05.285Z,63.88
2014-09-09T03:04:10.054Z,64.58
2014-09-09T03:05:14.789Z,66.35
2014-09-09T03:06:19.527Z,66.61
2014-09-09T03:07:24.262Z,66.55
2014-09-09T03:08:29.014Z,67.02
2014-09-09T03:09:34.033Z,67.52
2014-09-09T03:10:38.768Z,67.74
2014-09-09T03:11:43.505Z,67.89
2014-09-09T03:12:48.242Z,67.96
2014-09-09T03:13:52.978Z,68.02
2014-09-09T03:14:57.715Z,67.95
2014-09-09T03:16:02.482Z,68.14
2014-09-09T03:17:07.219Z,67.71
2014-09-09T03:18:11.955Z,67.45
2014-09-09T03:19:16.691Z,67.79
2014-09-09T03:20:21.413Z,67.88
2014-09-09T03:21:26.149Z,66.57
2014-09-09T03:22:30.886Z,65.72
2014-09-09T03:23:35.621Z,65.53
2014-09-09T03:24:40.359Z,66.21
2014-09-09T03:25:45.094Z,65.11
2014-09-09T03:26:49.831Z,65.72
2014-09-09T03:27:54.552Z,66.05
2014-09-09T03:28:59.287Z,66.34
2014-09-09T03:30:04.323Z,66.56
2014-09-09T03:31:09.058Z,66.74
2014-09-09T03:32:13.794Z,66.62
2014-09-09T03:33:18.516Z,66.91
2014-09-09T03:34:23.252Z,67.22
2014-09-09T03:35:27.988Z,66.33
2014-09-09T03:36:32.724Z,65.92
2014-09-09T03:37:37.462Z,65.18
2014-09-09T03:38:42.197Z,64.84
2014-09-09T03:39:46.934Z,64.78
2014-09-09T03:40:51.671Z,64.83
2014-09-09T03:41:56.392Z,66.15
2014-09-09T03:43:01.128Z,66.48
2014-09-09T03:44:05.864Z,66.53
2014-09-09T03:45:10.601Z,66.61
2014-09-09T03:46:15.337Z,66.92
2014-09-09T03:47:20.073Z,66.95
2014-09-09T03:48:24.810Z,67.32
2014-09-09T03:49:29.547Z,67.4
2014-09-09T03:50:34.284Z,66.37
2014-09-09T03:51:39.019Z,65.47
2014-09-09T03:52:43.756Z,65.21
2014-09-09T03:53:48.493Z,65.25
2014-09-09T03:54:53.510Z,66.11
2014-09-09T03:55:58.247Z,66.4
2014-09-09T03:57:02.983Z,66.36
2014-09-09T03:58:07.719Z,66.88
2014-09-09T03:59:11.768Z,66.69
2014-09-09T04:00:16.505Z,66.25
2014-09-09T04:01:21.225Z,66.45
2014-09-09T04:02:25.962Z,66.08
2014-09-09T04:03:30.698Z,65.9
2014-09-09T04:04:35.450Z,65.47
2014-09-09T04:05:40.188Z,65.68
2014-09-09T04:06:45.204Z,65.08
2014-09-09T04:07:50.223Z,65.42
2014-09-09T04:08:55.255Z,65.56
2014-09-09T04:09:59.992Z,65.3
2014-09-09T04:11:04.713Z,66.19
2014-09-09T04:12:09.450Z,65.8
2014-09-09T04:13:14.186Z,65.73
2014-09-09T04:14:18.922Z,65.99
2014-09-09T04:15:23.659Z,65.68
2014-09-09T04:16:28.411Z,65.93
2014-09-09T04:17:33.444Z,65.8
2014-09-09T04:18:38.196Z,65.77
2014-09-09T04:19:42.948Z,67.43
2014-09-09T04:20:47.012Z,68.13
2014-09-09T04:21:51.750Z,67.75
2014-09-09T04:22:56.470Z,67.6
2014-09-09T04:24:01.207Z,67.5
2014-09-09T04:25:05.928Z,67.91
2014-09-09T04:26:10.664Z,67.68
2014-09-09T04:27:15.385Z,67.37
2014-09-09T04:28:20.121Z,66.53
2014-09-09T04:29:25.154Z,66.65
2014-09-09T04:30:29.876Z,66.05
2014-09-09T04:31:33.924Z,65.9
2014-09-09T04:32:38.645Z,65.58
2014-09-09T04:33:43.381Z,66.54
2014-09-09T04:34:48.119Z,67.39
2014-09-09T04:35:52.838Z,67.91
2014-09-09T04:36:57.575Z,67.15
2014-09-09T04:38:02.633Z,66.33
2014-09-09T04:39:06.712Z,66.69
2014-09-09T04:40:11.493Z,66.35
2014-09-09T04:41:16.273Z,66.21
2014-09-09T04:42:21.336Z,66.42
2014-09-09T04:43:26.386Z,66.02
2014-09-09T04:44:31.139Z,66.78
2014-09-09T04:45:35.893Z,67.25
2014-09-09T04:46:40.644Z,67.44
2014-09-09T04:47:45.378Z,67.27
2014-09-09T04:48:50.401Z,67.59
2014-09-09T04:49:55.145Z,67.63
2014-09-09T04:50:59.886Z,66.57
2014-09-09T04:52:04.627Z,65.79
2014-09-09T04:53:09.649Z,64.88
2014-09-09T04:54:14.387Z,65.06
2014-09-09T04:55:19.127Z,65.03
2014-09-09T04:56:24.146Z,65.05
2014-09-09T04:57:28.869Z,65.55
2014-09-09T04:58:33.559Z,65.81
2014-09-09T04:59:38.547Z,65.9
2014-09-09T05:00:43.237Z,65.27
2014-09-09T05:01:48.225Z,64.73
2014-09-09T05:02:53.210Z,64.53
2014-09-09T05:03:57.885Z,65.14
2014-09-09T05:05:02.575Z,65.81
2014-09-09T05:06:07.561Z,64.97
2014-09-09T05:07:12.251Z,64.59
2014-09-09T05:08:16.925Z,64.86
2014-09-09T05:09:21.614Z,65.89
2014-09-09T05:10:26.303Z,66.96
2014-09-09T05:11:30.306Z,65.83
2014-09-09T05:12:34.980Z,64.87
2014-09-09T05:13:39.669Z,64.53
2014-09-09T05:14:44.358Z,64.52
2014-09-09T05:15:49.063Z,65.01
2014-09-09T05:16:54.035Z,64.45
2014-09-09T05:17:58.724Z,64.17
2014-09-09T05:19:03.414Z,64.58
2014-09-09T05:20:08.104Z,64.64
2014-09-09T05:21:12.794Z,64.83
2014-09-09T05:22:17.483Z,64.68
2014-09-09T05:23:22.158Z,64.51
2014-09-09T05:24:26.846Z,65.64
2014-09-09T05:25:31.537Z,65.64
2014-09-09T05:26:36.820Z,65.9
2014-09-09T05:27:41.493Z,65
2014-09-09T05:28:46.183Z,63.76
2014-09-09T05:29:51.170Z,62.56
2014-09-09T05:30:55.859Z,64.53
2014-09-09T05:32:00.549Z,64.47
2014-09-09T05:33:05.222Z,64.32
2014-09-09T05:34:09.912Z,63.96
2014-09-09T05:35:14.601Z,63.99
2014-09-09T05:36:19.588Z,64.35
2014-09-09T05:37:24.262Z,64.68
2014-09-09T05:38:28.951Z,64.24
2014-09-09T05:39:33.641Z,63.79
2014-09-09T05:40:38.330Z,64.55
2014-09-09T05:41:43.020Z,64.7
2014-09-09T05:42:47.991Z,64.46
2014-09-09T05:43:52.680Z,64.72
2014-09-09T05:44:57.370Z,64.94
2014-09-09T05:46:02.060Z,65.48
2014-09-09T05:47:07.046Z,65.17
2014-09-09T05:48:11.736Z,65.46
2014-09-09T05:49:16.425Z,65.19
2014-09-09T05:50:21.099Z,65.47
2014-09-09T05:51:26.087Z,64.68
2014-09-09T05:52:30.775Z,64.5
2014-09-09T05:53:35.466Z,64.8
2014-09-09T05:54:40.154Z,65.19
2014-09-09T05:55:44.845Z,66.01
2014-09-09T05:56:49.831Z,65.77
2014-09-09T05:57:54.519Z,66.29
2014-09-09T05:58:59.210Z,65.55
2014-09-09T06:00:03.898Z,64.41
2014-09-09T06:01:08.589Z,63.8
2014-09-09T06:02:13.263Z,63.75
2014-09-09T06:03:17.952Z,64.45
2014-09-09T06:04:22.954Z,63.9
2014-09-09T06:05:27.644Z,64.61
2014-09-09T06:06:32.333Z,64.81
2014-09-09T06:07:37.023Z,64.25
2014-09-09T06:08:42.010Z,63.59
2014-09-09T06:09:46.699Z,64.49
2014-09-09T06:10:51.685Z,64.49
2014-09-09T06:11:56.376Z,63.87
2014-09-09T06:13:01.065Z,63.86
2014-09-09T06:14:05.755Z,63.54
2014-09-09T06:15:10.741Z,63.48
2014-09-09T06:16:15.429Z,63.58
2014-09-09T06:17:20.417Z,63.17
2014-09-09T06:18:25.106Z,62.69
2014-09-09T06:19:29.796Z,62.26
2014-09-09T06:20:34.485Z,62.67
2014-09-09T06:21:39.175Z,62.87
2014-09-09T06:22:43.864Z,61.69
2014-09-09T06:23:48.554Z,59.43
2014-09-09T06:24:53.243Z,58.43
2014-09-09T06:25:57.934Z,57.81
2014-09-09T06:27:02.622Z,56.28
2014-09-09T06:28:07.610Z,57.47
2014-09-09T06:29:12.299Z,58.76
2014-09-09T06:30:16.989Z,59.4
2014-09-09T06:31:21.975Z,59.5
2014-09-09T06:32:26.665Z,60.3
2014-09-09T06:33:31.354Z,60.48
2014-09-09T06:34:36.340Z,59.75
2014-09-09T06:35:41.030Z,59.51
2014-09-09T06:36:45.719Z,59.9
2014-09-09T06:37:50.409Z,58.31
2014-09-09T06:38:55.395Z,56.12
2014-09-09T06:40:00.085Z,53.17
2014-09-09T06:41:04.774Z,50.93
2014-09-09T06:42:09.464Z,50.12
2014-09-09T06:43:14.451Z,49.71
2014-09-09T06:44:19.437Z,50.72
2014-09-09T06:45:24.127Z,50
2014-09-09T06:46:29.113Z,48.92
2014-09-09T06:47:33.803Z,50
2014-09-09T06:48:38.492Z,51.65
2014-09-09T06:49:43.182Z,52.81
2014-09-09T06:50:48.481Z,53.37
2014-09-09T06:51:53.170Z,54.45
2014-09-09T06:52:57.860Z,54.03
2014-09-09T06:54:03.143Z,54.37
2014-09-09T06:55:07.834Z,54.96
2014-09-09T06:56:12.538Z,55.16
2014-09-09T06:57:17.228Z,55.05
2014-09-09T06:58:21.918Z,54.76
2014-09-09T06:59:26.607Z,54.94
2014-09-09T07:00:31.312Z,54.59
2014-09-09T07:01:36.002Z,54.63
2014-09-09T07:02:40.707Z,55.28
2014-09-09T07:03:45.396Z,56.9
2014-09-09T07:04:50.086Z,57.31
2014-09-09T07:05:55.072Z,57.42
2014-09-09T07:06:59.762Z,58.11
2014-09-09T07:08:04.451Z,58.4
2014-09-09T07:09:09.141Z,58.87
2014-09-09T07:10:13.831Z,59.42
2014-09-09T07:11:18.520Z,59.99
2014-09-09T07:12:23.210Z,60.3
2014-09-09T07:13:28.196Z,60.79
2014-09-09T07:14:33.199Z,60.82
2014-09-09T07:15:37.888Z,61.18
2014-09-09T07:16:42.578Z,61.54
2014-09-09T07:17:47.267Z,61.07
2014-09-09T07:18:51.957Z,61.44
2014-09-09T07:19:56.647Z,62.22
2014-09-09T07:21:01.336Z,61.88
2014-09-09T07:22:06.026Z,60.86
2014-09-09T07:23:10.715Z,61.55
2014-09-09T07:24:15.405Z,61.88
2014-09-09T07:25:20.094Z,62.24
2014-09-09T07:26:24.784Z,61.98
2014-09-09T07:27:29.473Z,62.04
2014-09-09T07:28:34.179Z,62.15
2014-09-09T07:29:38.868Z,62.47
2014-09-09T07:30:44.151Z,62.95
2014-09-09T07:31:48.841Z,62.41
2014-09-09T07:32:53.531Z,61.75
2014-09-09T07:33:58.220Z,61.77
2014-09-09T07:35:03.206Z,61.5
2014-09-09T07:36:07.896Z,61.75
2014-09-09T07:37:12.585Z,62.9
2014-09-09T07:38:17.572Z,62.22
2014-09-09T07:39:22.261Z,61.69
2014-09-09T07:40:26.952Z,61.85
2014-09-09T07:41:31.625Z,62.05
2014-09-09T07:42:36.628Z,62.26
2014-09-09T07:43:41.660Z,62.05
2014-09-09T07:44:46.349Z,61.45
2014-09-09T07:45:51.040Z,61.06
2014-09-09T07:46:55.745Z,60.69
2014-09-09T07:48:00.731Z,59.59
2014-09-09T07:49:05.421Z,58.24
2014-09-09T07:50:10.110Z,58.27
2014-09-09T07:51:14.800Z,58.36
2014-09-09T07:52:19.786Z,56.85
2014-09-09T07:53:24.773Z,56.2
2014-09-09T07:54:29.463Z,57.02
2014-09-09T07:55:34.136Z,56.57
2014-09-09T07:56:38.827Z,56.51
2014-09-09T07:57:43.516Z,56.07
2014-09-09T07:58:48.206Z,57.13
2014-09-09T07:59:52.895Z,57.47
2014-09-09T08:00:57.881Z,58.15
2014-09-09T08:02:02.571Z,58.03
2014-09-09T08:03:07.557Z,58.58
2014-09-09T08:04:12.247Z,58.17
2014-09-09T08:05:17.233Z,58.26
2014-09-09T08:06:21.923Z,57.61
2014-09-09T08:07:25.925Z,56.76
2014-09-09T08:08:30.615Z,57.31
2014-09-09T08:09:35.320Z,56.01
2014-09-09T08:10:40.306Z,55.94
2014-09-09T08:11:44.996Z,55.16
2014-09-09T08:12:49.686Z,54.18
2014-09-09T08:13:54.375Z,53.97
2014-09-09T08:14:59.065Z,54.53
2014-09-09T08:16:04.067Z,57.66
2014-09-09T08:17:08.756Z,57.06
2014-09-09T08:18:13.743Z,57.13
2014-09-09T08:19:18.432Z,56.32
2014-09-09T08:20:23.403Z,56.4
2014-09-09T08:21:28.405Z,56.56
2014-09-09T08:22:33.094Z,57.55
2014-09-09T08:23:37.784Z,55.93
2014-09-09T08:24:42.771Z,55.9
2014-09-09T08:25:47.475Z,56.19
2014-09-09T08:26:52.166Z,56.61
2014-09-09T08:27:57.152Z,55.75
2014-09-09T08:29:01.842Z,54.79
2014-09-09T08:30:06.531Z,54.44
2014-09-09T08:31:10.518Z,54.81
2014-09-09T08:32:15.504Z,54.05
2014-09-09T08:33:20.193Z,53.46
2014-09-09T08:34:25.477Z,54.4
2014-09-09T08:35:30.166Z,54.53
2014-09-09T08:36:34.856Z,54.35
2014-09-09T08:37:39.546Z,53.45
2014-09-09T08:38:44.235Z,54.49
2014-09-09T08:39:48.909Z,53.28
2014-09-09T08:40:53.911Z,54.56
2014-09-09T08:41:58.897Z,56.13
2014-09-09T08:43:03.586Z,56.45
2014-09-09T08:44:08.260Z,55.81
2014-09-09T08:45:12.950Z,54.28
2014-09-09T08:46:17.639Z,53.82
2014-09-09T08:47:22.329Z,54.48
2014-09-09T08:48:27.018Z,54.87
2014-09-09T08:49:32.005Z,54.24
2014-09-09T08:50:36.694Z,55.35
2014-09-09T08:51:41.384Z,55.03
2014-09-09T08:52:46.059Z,53.52
2014-09-09T08:53:50.749Z,54.11
2014-09-09T08:54:55.439Z,53.31
2014-09-09T08:56:00.127Z,52.63
2014-09-09T08:57:05.113Z,52.91
2014-09-09T08:58:10.100Z,53.01
2014-09-09T08:59:14.789Z,53.29
2014-09-09T09:00:19.776Z,53.17
2014-09-09T09:01:24.465Z,52.85
2014-09-09T09:02:29.155Z,53.4
2014-09-09T09:03:34.141Z,52.93
2014-09-09T09:04:39.127Z,53.2
2014-09-09T09:05:43.817Z,52.53
2014-09-09T09:06:48.506Z,53.09
2014-09-09T09:07:53.195Z,53
2014-09-09T09:08:57.871Z,53.79
2014-09-09T09:10:02.560Z,52.27
2014-09-09T09:11:07.250Z,52.23
2014-09-09T09:12:12.236Z,52.33
2014-09-09T09:13:16.926Z,53.75
2014-09-09T09:14:21.615Z,53.02
2014-09-09T09:15:26.305Z,51.64
2014-09-09T09:16:31.291Z,51.8
2014-09-09T09:17:35.981Z,51.61
2014-09-09T09:18:40.967Z,51.48
2014-09-09T09:19:45.954Z,50.59
2014-09-09T09:20:50.644Z,50.11
2014-09-09T09:21:55.333Z,49.74
2014-09-09T09:23:00.023Z,51.22
2014-09-09T09:24:05.008Z,52.18
2014-09-09T09:25:09.995Z,52.2
2014-09-09T09:26:14.685Z,52.37
2014-09-09T09:27:19.375Z,52.88
2014-09-09T09:28:24.048Z,52.37
2014-09-09T09:29:28.738Z,51.86
2014-09-09T09:30:33.427Z,53.4
2014-09-09T09:31:38.117Z,53.08
2014-09-09T09:32:42.806Z,51.99
2014-09-09T09:33:47.498Z,53.3
2014-09-09T09:34:52.468Z,52.66
2014-09-09T09:35:57.157Z,52.53
2014-09-09T09:37:01.847Z,54.31
2014-09-09T09:38:06.536Z,53.49
2014-09-09T09:39:11.226Z,52.94
2014-09-09T09:40:15.900Z,51.93
2014-09-09T09:41:20.589Z,52.46
2014-09-09T09:42:25.279Z,51.83
2014-09-09T09:43:30.265Z,52.66
2014-09-09T09:44:35.251Z,53.09
2014-09-09T09:45:39.941Z,53.33
2014-09-09T09:46:44.629Z,52.98
2014-09-09T09:47:49.319Z,53.25
2014-09-09T09:48:54.009Z,52.39
2014-09-09T09:49:58.995Z,51.79
2014-09-09T09:51:03.684Z,51.42
2014-09-09T09:52:08.375Z,52.31
2014-09-09T09:53:13.361Z,51.23
2014-09-09T09:54:18.051Z,51.16
2014-09-09T09:55:22.724Z,50.75
2014-09-09T09:56:27.414Z,51.2
2014-09-09T09:57:32.103Z,51.55
2014-09-09T09:58:36.793Z,52.75
2014-09-09T09:59:41.482Z,52.23
2014-09-09T10:00:45.485Z,52.8
2014-09-09T10:01:50.176Z,52.69
2014-09-09T10:02:54.865Z,52.09
2014-09-09T10:03:59.555Z,51.67
2014-09-09T10:05:03.557Z,51.83
2014-09-09T10:06:08.246Z,52.06
2014-09-09T10:07:13.233Z,51.1
2014-09-09T10:08:18.218Z,51.02
2014-09-09T10:09:22.908Z,50.56
2014-09-09T10:10:27.597Z,50.6
2014-09-09T10:11:32.271Z,51.62
2014-09-09T10:12:36.961Z,51.66
2014-09-09T10:13:41.650Z,51.56
2014-09-09T10:14:46.340Z,51.62
2014-09-09T10:15:51.029Z,52.09
2014-09-09T10:16:55.719Z,51.73
2014-09-09T10:18:00.706Z,52.72
2014-09-09T10:19:05.395Z,51.05
2014-09-09T10:20:10.085Z,51
2014-09-09T10:21:14.774Z,50.46
2014-09-09T10:22:19.760Z,51.81
2014-09-09T10:23:24.747Z,51.1
2014-09-09T10:24:29.437Z,51.16
2014-09-09T10:25:34.126Z,51.47
2014-09-09T10:26:38.818Z,52.02
2014-09-09T10:27:43.788Z,52
2014-09-09T10:28:48.477Z,52.2
2014-09-09T10:29:53.479Z,51.73
2014-09-09T10:30:58.168Z,51.91
2014-09-09T10:32:02.858Z,52.48
2014-09-09T10:33:07.829Z,51.95
2014-09-09T10:34:12.518Z,51.45
2014-09-09T10:35:17.208Z,52.05
2014-09-09T10:36:22.194Z,52.51
2014-09-09T10:37:26.884Z,51.94
2014-09-09T10:38:31.573Z,52.57
2014-09-09T10:39:36.263Z,52.08
2014-09-09T10:40:40.968Z,51.59
2014-09-09T10:41:45.657Z,52.3
2014-09-09T10:42:50.347Z,50.53
2014-09-09T10:43:55.036Z,50.44
2014-09-09T10:44:59.727Z,49.81
2014-09-09T10:46:04.417Z,49.66
2014-09-09T10:47:09.091Z,50.96
2014-09-09T10:48:13.780Z,52.44
2014-09-09T10:49:18.469Z,51.23
2014-09-09T10:50:23.159Z,50.56
2014-09-09T10:51:28.145Z,50.13
2014-09-09T10:52:32.835Z,49.71
2014-09-09T10:53:37.822Z,50.7
2014-09-09T10:54:42.497Z,51.03
2014-09-09T10:55:47.482Z,50.68
2014-09-09T10:56:52.172Z,50.72
2014-09-09T10:57:56.862Z,51.86
2014-09-09T10:59:01.848Z,51.46
2014-09-09T11:00:06.834Z,50.55
2014-09-09T11:01:11.523Z,50.05
2014-09-09T11:02:16.213Z,49.07
2014-09-09T11:03:20.903Z,49.09
2014-09-09T11:04:25.593Z,48.77
2014-09-09T11:05:30.282Z,48.43
2014-09-09T11:06:34.972Z,48.91
2014-09-09T11:07:39.661Z,49.15
2014-09-09T11:08:44.351Z,48.56
2014-09-09T11:09:49.338Z,47.68
2014-09-09T11:10:54.027Z,48.37
2014-09-09T11:11:58.717Z,48.75
2014-09-09T11:13:02.719Z,48.91
2014-09-09T11:14:07.408Z,48.81
2014-09-09T11:15:12.192Z,48.56
2014-09-09T11:16:16.881Z,49.71
2014-09-09T11:17:21.571Z,49.67
2014-09-09T11:18:26.260Z,48.79
2014-09-09T11:19:30.950Z,47.57
2014-09-09T11:20:35.639Z,47.6
2014-09-09T11:21:40.329Z,49.32
2014-09-09T11:22:45.019Z,50.79
2014-09-09T11:23:50.005Z,50.57
2014-09-09T11:24:54.695Z,49.41
2014-09-09T11:25:59.384Z,49.91
2014-09-09T11:27:04.371Z,50.06
2014-09-09T11:28:09.075Z,48.78
2014-09-09T11:29:13.797Z,48.52
2014-09-09T11:30:18.487Z,48.96
2014-09-09T11:31:23.473Z,48.45
2014-09-09T11:32:28.162Z,48.24
2014-09-09T11:33:32.852Z,48.96
2014-09-09T11:34:36.854Z,49.04
2014-09-09T11:35:41.840Z,48.6
2014-09-09T11:36:46.530Z,48.52
2014-09-09T11:37:51.219Z,49.64
2014-09-09T11:38:55.909Z,48.37
2014-09-09T11:40:00.615Z,48.09
2014-09-09T11:41:05.320Z,47.88
2014-09-09T11:42:10.025Z,48.75
2014-09-09T11:43:14.714Z,48.08
2014-09-09T11:44:19.404Z,48.46
2014-09-09T11:45:24.093Z,48.92
2014-09-09T11:46:28.783Z,49.22
2014-09-09T11:47:33.472Z,49.95
2014-09-09T11:48:38.162Z,49.73
2014-09-09T11:49:42.852Z,49.88
2014-09-09T11:50:47.869Z,49.96
2014-09-09T11:51:52.559Z,50.69
2014-09-09T11:52:56.561Z,49.65
2014-09-09T11:54:01.250Z,49.26
2014-09-09T11:55:05.940Z,52.06
2014-09-09T11:56:10.630Z,51.11
2014-09-09T11:57:15.616Z,50.66
2014-09-09T11:58:20.306Z,51.32
2014-09-09T11:59:24.995Z,50.53
2014-09-09T12:00:29.685Z,50.02
2014-09-09T12:01:33.687Z,50.92
2014-09-09T12:02:38.376Z,50.61
2014-09-09T12:03:43.066Z,49.68
2014-09-09T12:04:47.756Z,49.87
2014-09-09T12:05:52.445Z,50.43
2014-09-09T12:06:56.463Z,50.77
2014-09-09T12:08:01.152Z,50.03
2014-09-09T12:09:05.842Z,49.32
2014-09-09T12:10:10.531Z,49.65
2014-09-09T12:11:15.221Z,50.25
2014-09-09T12:12:19.911Z,50.08
2014-09-09T12:13:24.600Z,48.32
2014-09-09T12:14:29.290Z,47.9
2014-09-09T12:15:33.994Z,47.93
2014-09-09T12:16:38.982Z,47.23
2014-09-09T12:17:43.671Z,47.43
2014-09-09T12:18:48.361Z,47.46
2014-09-09T12:19:53.644Z,47.31
2014-09-09T12:20:58.334Z,47.33
2014-09-09T12:22:03.023Z,47.28
2014-09-09T12:23:07.714Z,47.79
2014-09-09T12:24:12.402Z,48.07
2014-09-09T12:25:17.093Z,48.68
2014-09-09T12:26:21.781Z,50.57
2014-09-09T12:27:26.472Z,51.27
2014-09-09T12:28:31.176Z,49.19
2014-09-09T12:29:35.882Z,47.86
2014-09-09T12:30:40.883Z,47.94
2014-09-09T12:31:45.589Z,47.42
2014-09-09T12:32:50.294Z,47.23
2014-09-09T12:33:54.984Z,46.15
2014-09-09T12:34:59.986Z,46.52
2014-09-09T12:36:04.972Z,46.38
2014-09-09T12:37:09.958Z,46.7
2014-09-09T12:38:14.945Z,46.76
2014-09-09T12:39:19.634Z,46.32
2014-09-09T12:40:24.324Z,46.11
2014-09-09T12:41:29.013Z,45.5
2014-09-09T12:42:33.703Z,46.17
2014-09-09T12:43:38.393Z,46
2014-09-09T12:44:43.082Z,47.1
2014-09-09T12:45:47.772Z,47.07
2014-09-09T12:46:52.758Z,47.02
2014-09-09T12:47:57.448Z,47.23
2014-09-09T12:49:02.153Z,46.85
2014-09-09T12:50:06.843Z,46.33
2014-09-09T12:51:11.532Z,46
2014-09-09T12:52:16.222Z,46.1
2014-09-09T12:53:21.209Z,45.83
2014-09-09T12:54:25.899Z,45.66
2014-09-09T12:55:30.587Z,45.84
2014-09-09T12:56:35.278Z,45.26
2014-09-09T12:57:39.966Z,45.69
2014-09-09T12:58:44.672Z,45.47
2014-09-09T12:59:49.658Z,44.89
2014-09-09T13:00:54.348Z,45.49
2014-09-09T13:01:59.038Z,46.85
2014-09-09T13:03:03.727Z,44.37
2014-09-09T13:04:08.713Z,43.94
2014-09-09T13:05:13.403Z,43.99
2014-09-09T13:06:18.108Z,43.42
2014-09-09T13:07:22.799Z,44.47
2014-09-09T13:08:27.784Z,44.97
2014-09-09T13:09:32.474Z,45.86
2014-09-09T13:10:37.163Z,46.06
2014-09-09T13:11:41.853Z,45.57
2014-09-09T13:12:46.542Z,45.68
2014-09-09T13:13:51.232Z,45.44
2014-09-09T13:14:55.921Z,45.75
2014-09-09T13:16:00.627Z,45.75
2014-09-09T13:17:05.332Z,45.68
2014-09-09T13:18:10.022Z,46.2
2014-09-09T13:19:14.727Z,45.52
2014-09-09T13:20:19.744Z,45.62
2014-09-09T13:21:24.434Z,46.08
2014-09-09T13:22:29.123Z,46.31
2014-09-09T13:23:33.813Z,44.9
2014-09-09T13:24:38.502Z,45.69
2014-09-09T13:25:43.489Z,46.18
2014-09-09T13:26:48.179Z,45.75
2014-09-09T13:27:52.869Z,45.14
2014-09-09T13:28:57.558Z,44.83
2014-09-09T13:30:02.248Z,45.46
2014-09-09T13:31:06.936Z,44.55
2014-09-09T13:32:11.627Z,45.67
2014-09-09T13:33:16.315Z,44.6
2014-09-09T13:34:21.006Z,44.55
2014-09-09T13:35:25.695Z,44.27
2014-09-09T13:36:30.385Z,45.13
2014-09-09T13:37:35.090Z,45.86
2014-09-09T13:38:39.779Z,44.89
2014-09-09T13:39:44.766Z,44.74
2014-09-09T13:40:49.753Z,44.54
2014-09-09T13:41:54.442Z,44.5
2014-09-09T13:42:59.132Z,45.05
2014-09-09T13:44:03.843Z,45.51
2014-09-09T13:45:08.872Z,44.61
2014-09-09T13:46:13.605Z,44.83
2014-09-09T13:47:18.338Z,45.73
2014-09-09T13:48:23.071Z,44.36
2014-09-09T13:49:27.779Z,44.78
2014-09-09T13:50:32.485Z,45.48
2014-09-09T13:51:37.189Z,46.52
2014-09-09T13:52:41.894Z,45.99
2014-09-09T13:53:46.597Z,45.59
2014-09-09T13:54:51.588Z,45.11
2014-09-09T13:55:56.284Z,45.41
2014-09-09T13:57:00.979Z,46.79